sensor_id;sensor_type;location;lat;lon;timestamp;pressure;altitude;pressure_sealevel;temperature;humidity
59274;BME280;45044;41.572;24.730;2022-11-04T00:01:41;91624.28;;;6.38;100.00
59274;BME280;45044;41.572;24.730;2022-11-04T00:04:09;91611.06;;;6.30;100.00
59274;BME280;45044;41.572;24.730;2022-11-04T00:06:37;91618.66;;;6.19;100.00
59274;BME280;45044;41.572;24.730;2022-11-04T00:09:06;91623.72;;;6.28;100.00
59274;BME280;45044;41.572;24.730;2022-11-04T00:11:33;91621.59;;;6.34;100.00
59274;BME280;45044;41.572;24.730;2022-11-04T00:14:18;91622.69;;;6.33;100.00
59274;BME280;45044;41.572;24.730;2022-11-04T00:16:45;91623.53;;;6.21;100.00
59274;BME280;45044;41.572;24.730;2022-11-04T00:19:31;91624.56;;;6.32;100.00
59274;BME280;45044;41.572;24.730;2022-11-04T00:22:17;91596.06;;;6.11;100.00
59274;BME280;45044;41.572;24.730;2022-11-04T00:25:03;91618.06;;;6.10;100.00
59274;BME280;45044;41.572;24.730;2022-11-04T00:27:49;91611.88;;;6.02;100.00
59274;BME280;45044;41.572;24.730;2022-11-04T00:30:35;91618.69;;;5.91;100.00
59274;BME280;45044;41.572;24.730;2022-11-04T00:33:01;91612.81;;;5.94;100.00
59274;BME280;45044;41.572;24.730;2022-11-04T00:35:47;91589.97;;;5.74;100.00
59274;BME280;45044;41.572;24.730;2022-11-04T00:38:15;91615.78;;;6.08;100.00
59274;BME280;45044;41.572;24.730;2022-11-04T00:40:42;91606.66;;;6.02;100.00
59274;BME280;45044;41.572;24.730;2022-11-04T00:43:09;91599.50;;;5.99;100.00
59274;BME280;45044;41.572;24.730;2022-11-04T00:45:36;91608.75;;;5.96;100.00
59274;BME280;45044;41.572;24.730;2022-11-04T00:48:03;91608.75;;;5.96;100.00
59274;BME280;45044;41.572;24.730;2022-11-04T00:50:30;91610.53;;;5.76;100.00
59274;BME280;45044;41.572;24.730;2022-11-04T00:53:01;91592.41;;;5.67;100.00
59274;BME280;45044;41.572;24.730;2022-11-04T00:55:28;91597.88;;;5.78;100.00
59274;BME280;45044;41.572;24.730;2022-11-04T00:57:55;91597.31;;;5.85;100.00
59274;BME280;45044;41.572;24.730;2022-11-04T01:00:23;91588.47;;;5.90;100.00
59274;BME280;45044;41.572;24.730;2022-11-04T01:02:49;91593.69;;;5.90;100.00
59274;BME280;45044;41.572;24.730;2022-11-04T01:05:17;91580.72;;;5.77;100.00
59274;BME280;45044;41.572;24.730;2022-11-04T01:07:43;91586.72;;;5.78;100.00
59274;BME280;45044;41.572;24.730;2022-11-04T01:10:10;91589.41;;;5.65;100.00
59274;BME280;45044;41.572;24.730;2022-11-04T01:12:37;91594.28;;;5.67;100.00
59274;BME280;45044;41.572;24.730;2022-11-04T01:15:04;91581.56;;;5.65;100.00
59274;BME280;45044;41.572;24.730;2022-11-04T01:17:31;91584.44;;;5.76;100.00
59274;BME280;45044;41.572;24.730;2022-11-04T01:19:58;91585.28;;;5.80;100.00
59274;BME280;45044;41.572;24.730;2022-11-04T01:22:25;91588.53;;;5.61;100.00
59274;BME280;45044;41.572;24.730;2022-11-04T01:24:52;91587.00;;;5.60;100.00
59274;BME280;45044;41.572;24.730;2022-11-04T01:27:19;91575.94;;;5.63;100.00
59274;BME280;45044;41.572;24.730;2022-11-04T01:29:45;91571.94;;;5.53;100.00
59274;BME280;45044;41.572;24.730;2022-11-04T01:32:12;91581.63;;;5.53;100.00
59274;BME280;45044;41.572;24.730;2022-11-04T01:34:39;91581.63;;;5.53;100.00
59274;BME280;45044;41.572;24.730;2022-11-04T01:37:09;91570.09;;;5.37;100.00
59274;BME280;45044;41.572;24.730;2022-11-04T01:39:35;91564.97;;;5.12;100.00
59274;BME280;45044;41.572;24.730;2022-11-04T01:42:02;91571.31;;;5.27;100.00
59274;BME280;45044;41.572;24.730;2022-11-04T01:47:19;91563.25;;;5.33;100.00
59274;BME280;45044;41.572;24.730;2022-11-04T01:49:54;91568.94;;;5.22;100.00
59274;BME280;45044;41.572;24.730;2022-11-04T01:52:30;91556.69;;;5.23;100.00
59274;BME280;45044;41.572;24.730;2022-11-04T01:55:02;91554.31;;;5.18;100.00
59274;BME280;45044;41.572;24.730;2022-11-04T01:57:36;91560.16;;;5.27;100.00
59274;BME280;45044;41.572;24.730;2022-11-04T02:00:07;91565.59;;;5.38;100.00
59274;BME280;45044;41.572;24.730;2022-11-04T02:02:53;91557.28;;;5.32;100.00
59274;BME280;45044;41.572;24.730;2022-11-04T02:05:22;91557.66;;;5.47;100.00
59274;BME280;45044;41.572;24.730;2022-11-04T02:07:53;91552.84;;;5.04;100.00
59274;BME280;45044;41.572;24.730;2022-11-04T02:10:24;91549.66;;;5.11;100.00
59274;BME280;45044;41.572;24.730;2022-11-04T02:12:53;91558.78;;;5.33;100.00
59274;BME280;45044;41.572;24.730;2022-11-04T02:21:12;91557.66;;;4.89;100.00
59274;BME280;45044;41.572;24.730;2022-11-04T02:35:02;91545.88;;;5.08;100.00
59274;BME280;45044;41.572;24.730;2022-11-04T02:46:30;91540.47;;;5.01;100.00
59274;BME280;45044;41.572;24.730;2022-11-04T02:51:39;91530.84;;;4.89;100.00
59274;BME280;45044;41.572;24.730;2022-11-04T02:54:11;91532.91;;;4.96;100.00
59274;BME280;45044;41.572;24.730;2022-11-04T02:56:44;91521.88;;;4.86;100.00
59274;BME280;45044;41.572;24.730;2022-11-04T02:59:19;91537.50;;;4.86;100.00
59274;BME280;45044;41.572;24.730;2022-11-04T03:01:48;91525.13;;;4.83;100.00
59274;BME280;45044;41.572;24.730;2022-11-04T03:04:21;91510.19;;;4.67;100.00
59274;BME280;45044;41.572;24.730;2022-11-04T03:06:51;91531.41;;;4.82;100.00
59274;BME280;45044;41.572;24.730;2022-11-04T03:09:19;91521.28;;;4.64;100.00
59274;BME280;45044;41.572;24.730;2022-11-04T03:11:52;91494.63;;;4.55;100.00
59274;BME280;45044;41.572;24.730;2022-11-04T03:14:44;91526.88;;;4.79;100.00
59274;BME280;45044;41.572;24.730;2022-11-04T03:17:28;91519.09;;;4.66;100.00
59274;BME280;45044;41.572;24.730;2022-11-04T03:20:02;91513.31;;;4.73;100.00
59274;BME280;45044;41.572;24.730;2022-11-04T03:22:34;91513.31;;;4.73;100.00
59274;BME280;45044;41.572;24.730;2022-11-04T03:25:06;91518.25;;;4.62;100.00
59274;BME280;45044;41.572;24.730;2022-11-04T03:30:16;91517.63;;;4.53;100.00
59274;BME280;45044;41.572;24.730;2022-11-04T03:32:57;91519.16;;;4.54;100.00
59274;BME280;45044;41.572;24.730;2022-11-04T03:35:27;91521.53;;;4.47;100.00
59274;BME280;45044;41.572;24.730;2022-11-04T03:37:55;91524.78;;;4.43;100.00
59274;BME280;45044;41.572;24.730;2022-11-04T03:40:23;91520.34;;;4.44;100.00
59274;BME280;45044;41.572;24.730;2022-11-04T03:42:58;91518.72;;;4.52;100.00
59274;BME280;45044;41.572;24.730;2022-11-04T03:45:26;91516.56;;;4.29;100.00
59274;BME280;45044;41.572;24.730;2022-11-04T03:47:55;91511.13;;;4.47;100.00
59274;BME280;45044;41.572;24.730;2022-11-04T03:50:37;91515.47;;;4.42;100.00
59274;BME280;45044;41.572;24.730;2022-11-04T03:53:04;91509.91;;;4.57;100.00
59274;BME280;45044;41.572;24.730;2022-11-04T03:58:24;91515.22;;;4.60;100.00
59274;BME280;45044;41.572;24.730;2022-11-04T04:01:00;91513.38;;;4.61;100.00
59274;BME280;45044;41.572;24.730;2022-11-04T04:03:45;91506.66;;;4.47;100.00
59274;BME280;45044;41.572;24.730;2022-11-04T04:06:18;91515.31;;;4.64;100.00
59274;BME280;45044;41.572;24.730;2022-11-04T04:08:51;91509.56;;;4.58;100.00
59274;BME280;45044;41.572;24.730;2022-11-04T04:14:44;91513.75;;;4.34;100.00
59274;BME280;45044;41.572;24.730;2022-11-04T04:17:17;91511.38;;;4.41;100.00
59274;BME280;45044;41.572;24.730;2022-11-04T04:20:13;91515.50;;;4.30;100.00
59274;BME280;45044;41.572;24.730;2022-11-04T04:22:44;91513.66;;;4.30;100.00
59274;BME280;45044;41.572;24.730;2022-11-04T04:25:14;91506.72;;;4.22;100.00
59274;BME280;45044;41.572;24.730;2022-11-04T04:28:02;91515.94;;;4.32;100.00
59274;BME280;45044;41.572;24.730;2022-11-04T04:30:30;91509.31;;;4.35;100.00
59274;BME280;45044;41.572;24.730;2022-11-04T04:33:02;91503.81;;;4.11;100.00
59274;BME280;45044;41.572;24.730;2022-11-04T04:35:42;91513.13;;;3.87;100.00
59274;BME280;45044;41.572;24.730;2022-11-04T04:38:17;91513.47;;;3.98;100.00
59274;BME280;45044;41.572;24.730;2022-11-04T04:41:20;91517.59;;;3.99;100.00
59274;BME280;45044;41.572;24.730;2022-11-04T04:44:13;91512.50;;;3.78;100.00
59274;BME280;45044;41.572;24.730;2022-11-04T04:46:59;91511.72;;;4.02;100.00
59274;BME280;45044;41.572;24.730;2022-11-04T04:49:28;91518.34;;;4.12;100.00
59274;BME280;45044;41.572;24.730;2022-11-04T04:52:02;91518.22;;;4.21;100.00
59274;BME280;45044;41.572;24.730;2022-11-04T04:54:29;91522.75;;;4.37;100.00
59274;BME280;45044;41.572;24.730;2022-11-04T04:56:56;91510.63;;;4.28;100.00
59274;BME280;45044;41.572;24.730;2022-11-04T04:59:23;91512.44;;;4.40;100.00
59274;BME280;45044;41.572;24.730;2022-11-04T05:01:50;91517.50;;;4.49;100.00
59274;BME280;45044;41.572;24.730;2022-11-04T05:04:17;91516.97;;;4.56;100.00
59274;BME280;45044;41.572;24.730;2022-11-04T05:06:43;91516.97;;;4.43;100.00
59274;BME280;45044;41.572;24.730;2022-11-04T05:09:10;91514.59;;;4.38;100.00
59274;BME280;45044;41.572;24.730;2022-11-04T05:11:37;91522.75;;;4.37;100.00
59274;BME280;45044;41.572;24.730;2022-11-04T05:14:03;91517.66;;;4.28;100.00
59274;BME280;45044;41.572;24.730;2022-11-04T05:16:30;91522.13;;;4.15;100.00
59274;BME280;45044;41.572;24.730;2022-11-04T05:19:02;91521.06;;;4.16;100.00
59274;BME280;45044;41.572;24.730;2022-11-04T05:21:29;91525.28;;;4.21;100.00
59274;BME280;45044;41.572;24.730;2022-11-04T05:23:56;91521.50;;;4.18;100.00
59274;BME280;45044;41.572;24.730;2022-11-04T05:26:22;91522.66;;;4.21;100.00
59274;BME280;45044;41.572;24.730;2022-11-04T05:28:49;91526.81;;;4.22;100.00
59274;BME280;45044;41.572;24.730;2022-11-04T05:31:16;91525.59;;;4.31;100.00
59274;BME280;45044;41.572;24.730;2022-11-04T05:33:43;91524.72;;;4.27;100.00
59274;BME280;45044;41.572;24.730;2022-11-04T05:36:12;91533.06;;;4.33;100.00
59274;BME280;45044;41.572;24.730;2022-11-04T05:38:39;91529.28;;;4.30;100.00
59274;BME280;45044;41.572;24.730;2022-11-04T05:41:08;91497.94;;;4.27;100.00
59274;BME280;45044;41.572;24.730;2022-11-04T05:43:35;91518.72;;;4.52;100.00
59274;BME280;45044;41.572;24.730;2022-11-04T05:46:02;91532.91;;;4.67;100.00
59274;BME280;45044;41.572;24.730;2022-11-04T05:48:29;91529.91;;;4.81;100.00
59274;BME280;45044;41.572;24.730;2022-11-04T05:50:56;91523.78;;;4.89;100.00
59274;BME280;45044;41.572;24.730;2022-11-04T05:53:23;91529.38;;;5.04;100.00
59274;BME280;45044;41.572;24.730;2022-11-04T05:55:49;91524.69;;;5.10;100.00
59274;BME280;45044;41.572;24.730;2022-11-04T05:58:16;91535.97;;;5.14;100.00
59274;BME280;45044;41.572;24.730;2022-11-04T06:00:43;91533.44;;;5.01;100.00
59274;BME280;45044;41.572;24.730;2022-11-04T06:03:10;91534.97;;;5.19;100.00
59274;BME280;45044;41.572;24.730;2022-11-04T06:05:41;91525.56;;;5.14;100.00
59274;BME280;45044;41.572;24.730;2022-11-04T06:08:08;91541.47;;;5.25;100.00
59274;BME280;45044;41.572;24.730;2022-11-04T06:10:35;91550.47;;;5.44;100.00
59274;BME280;45044;41.572;24.730;2022-11-04T06:13:02;91537.97;;;5.66;100.00
59274;BME280;45044;41.572;24.730;2022-11-04T06:15:28;91544.94;;;6.26;100.00
59274;BME280;45044;41.572;24.730;2022-11-04T06:17:55;91546.22;;;7.51;100.00
59274;BME280;45044;41.572;24.730;2022-11-04T06:20:22;91534.56;;;9.04;100.00
59274;BME280;45044;41.572;24.730;2022-11-04T06:22:49;91538.97;;;10.22;94.78
59274;BME280;45044;41.572;24.730;2022-11-04T06:25:15;91533.19;;;11.47;82.63
59274;BME280;45044;41.572;24.730;2022-11-04T06:27:42;91545.66;;;12.52;72.64
59274;BME280;45044;41.572;24.730;2022-11-04T06:30:10;91543.25;;;13.13;68.63
59274;BME280;45044;41.572;24.730;2022-11-04T06:32:37;91540.19;;;14.00;62.89
59274;BME280;45044;41.572;24.730;2022-11-04T06:35:03;91540.44;;;14.59;59.38
59274;BME280;45044;41.572;24.730;2022-11-04T06:37:30;91547.75;;;14.90;57.76
59274;BME280;45044;41.572;24.730;2022-11-04T06:39:57;91535.25;;;15.57;55.40
59274;BME280;45044;41.572;24.730;2022-11-04T06:42:23;91535.94;;;16.64;52.98
59274;BME280;45044;41.572;24.730;2022-11-04T06:44:52;91533.09;;;16.96;51.42
59274;BME280;45044;41.572;24.730;2022-11-04T06:47:18;91527.66;;;17.44;49.14
59274;BME280;45044;41.572;24.730;2022-11-04T06:49:50;91534.72;;;17.88;48.26
59274;BME280;45044;41.572;24.730;2022-11-04T06:52:17;91531.84;;;17.99;47.86
59274;BME280;45044;41.572;24.730;2022-11-04T06:54:43;91531.19;;;18.91;46.05
59274;BME280;45044;41.572;24.730;2022-11-04T06:57:10;91533.31;;;18.00;46.84
59274;BME280;45044;41.572;24.730;2022-11-04T06:59:38;91536.44;;;19.24;44.72
59274;BME280;45044;41.572;24.730;2022-11-04T07:02:04;91533.06;;;19.37;43.76
59274;BME280;45044;41.572;24.730;2022-11-04T07:04:31;91536.28;;;20.36;42.15
59274;BME280;45044;41.572;24.730;2022-11-04T07:06:59;91531.31;;;20.74;41.58
59274;BME280;45044;41.572;24.730;2022-11-04T07:09:26;91522.41;;;19.37;43.29
59274;BME280;45044;41.572;24.730;2022-11-04T07:11:52;91519.75;;;19.50;43.25
59274;BME280;45044;41.572;24.730;2022-11-04T07:14:19;91522.22;;;19.96;42.48
59274;BME280;45044;41.572;24.730;2022-11-04T07:16:49;91528.94;;;19.75;42.78
59274;BME280;45044;41.572;24.730;2022-11-04T07:19:16;91532.25;;;20.18;41.77
59274;BME280;45044;41.572;24.730;2022-11-04T07:21:43;91518.53;;;19.38;43.18
59274;BME280;45044;41.572;24.730;2022-11-04T07:24:10;91514.03;;;19.22;44.99
59274;BME280;45044;41.572;24.730;2022-11-04T07:26:36;91505.38;;;21.19;41.36
59274;BME280;45044;41.572;24.730;2022-11-04T07:29:03;91515.56;;;20.40;41.34
59274;BME280;45044;41.572;24.730;2022-11-04T07:31:32;91517.91;;;18.74;44.25
59274;BME280;45044;41.572;24.730;2022-11-04T07:33:59;91503.41;;;18.12;46.26
59274;BME280;45044;41.572;24.730;2022-11-04T07:36:25;91497.97;;;20.30;42.27
59274;BME280;45044;41.572;24.730;2022-11-04T07:38:53;91490.59;;;20.92;40.98
59274;BME280;45044;41.572;24.730;2022-11-04T07:41:21;91487.56;;;21.48;39.42
59274;BME280;45044;41.572;24.730;2022-11-04T07:43:51;91475.94;;;22.14;37.13
59274;BME280;45044;41.572;24.730;2022-11-04T07:46:19;91470.34;;;22.78;37.26
59274;BME280;45044;41.572;24.730;2022-11-04T07:48:46;91477.09;;;23.54;35.97
59274;BME280;45044;41.572;24.730;2022-11-04T07:51:15;91466.94;;;21.89;37.87
59274;BME280;45044;41.572;24.730;2022-11-04T07:53:43;91465.53;;;23.29;36.06
59274;BME280;45044;41.572;24.730;2022-11-04T07:56:11;91461.69;;;21.45;38.43
59274;BME280;45044;41.572;24.730;2022-11-04T07:58:38;91459.31;;;20.34;40.22
59274;BME280;45044;41.572;24.730;2022-11-04T08:01:08;91461.94;;;19.60;40.79
59274;BME280;45044;41.572;24.730;2022-11-04T08:03:35;91453.22;;;20.34;39.42
59274;BME280;45044;41.572;24.730;2022-11-04T08:06:04;91450.88;;;21.80;37.57
59274;BME280;45044;41.572;24.730;2022-11-04T08:08:31;91451.84;;;22.14;37.11
59274;BME280;45044;41.572;24.730;2022-11-04T08:11:08;91450.88;;;20.36;40.04
59274;BME280;45044;41.572;24.730;2022-11-04T08:13:43;91442.19;;;21.76;38.58
59274;BME280;45044;41.572;24.730;2022-11-04T08:16:16;91439.75;;;20.96;39.08
59274;BME280;45044;41.572;24.730;2022-11-04T08:18:43;91442.97;;;23.55;35.82
59274;BME280;45044;41.572;24.730;2022-11-04T08:21:10;91424.38;;;23.51;35.37
59274;BME280;45044;41.572;24.730;2022-11-04T08:23:37;91419.03;;;23.76;35.38
59274;BME280;45044;41.572;24.730;2022-11-04T08:26:09;91421.31;;;21.42;38.41
59274;BME280;45044;41.572;24.730;2022-11-04T08:28:37;91415.41;;;21.66;38.12
59274;BME280;45044;41.572;24.730;2022-11-04T08:31:07;91414.75;;;21.44;39.52
59274;BME280;45044;41.572;24.730;2022-11-04T08:33:34;91408.97;;;20.23;40.60
59274;BME280;45044;41.572;24.730;2022-11-04T08:36:05;91402.59;;;21.52;38.22
59274;BME280;45044;41.572;24.730;2022-11-04T08:38:32;91408.25;;;21.95;36.86
59274;BME280;45044;41.572;24.730;2022-11-04T08:41:02;91407.22;;;22.30;37.25
59274;BME280;45044;41.572;24.730;2022-11-04T08:43:29;91398.88;;;21.90;37.08
59274;BME280;45044;41.572;24.730;2022-11-04T08:45:57;91408.13;;;22.27;36.92
59274;BME280;45044;41.572;24.730;2022-11-04T08:48:24;91403.06;;;22.20;37.15
59274;BME280;45044;41.572;24.730;2022-11-04T08:50:52;91394.13;;;22.79;36.49
59274;BME280;45044;41.572;24.730;2022-11-04T08:53:20;91390.72;;;23.41;34.86
59274;BME280;45044;41.572;24.730;2022-11-04T08:55:47;91387.31;;;22.41;36.00
59274;BME280;45044;41.572;24.730;2022-11-04T08:58:14;91389.38;;;22.74;35.48
59274;BME280;45044;41.572;24.730;2022-11-04T09:00:41;91390.72;;;22.50;35.39
59274;BME280;45044;41.572;24.730;2022-11-04T09:03:08;91376.59;;;22.22;36.14
59274;BME280;45044;41.572;24.730;2022-11-04T09:05:36;91384.63;;;22.59;36.11
59274;BME280;45044;41.572;24.730;2022-11-04T09:08:11;91370.50;;;22.12;35.75
59274;BME280;45044;41.572;24.730;2022-11-04T09:10:46;91377.09;;;23.11;35.51
59274;BME280;45044;41.572;24.730;2022-11-04T09:13:14;91370.63;;;21.89;36.55
59274;BME280;45044;41.572;24.730;2022-11-04T09:15:41;91374.47;;;21.88;36.50
59274;BME280;45044;41.572;24.730;2022-11-04T09:18:08;91361.88;;;22.08;36.62
59274;BME280;45044;41.572;24.730;2022-11-04T09:20:35;91369.03;;;22.39;36.02
59274;BME280;45044;41.572;24.730;2022-11-04T09:23:05;91356.06;;;22.47;35.43
59274;BME280;45044;41.572;24.730;2022-11-04T09:25:33;91353.97;;;22.60;35.65
59274;BME280;45044;41.572;24.730;2022-11-04T09:28:00;91364.19;;;21.77;37.05
59274;BME280;45044;41.572;24.730;2022-11-04T09:30:27;91351.75;;;22.21;35.33
59274;BME280;45044;41.572;24.730;2022-11-04T09:32:54;91352.19;;;22.67;35.70
59274;BME280;45044;41.572;24.730;2022-11-04T09:38:31;91348.34;;;21.93;36.18
59274;BME280;45044;41.572;24.730;2022-11-04T09:40:58;91345.97;;;22.13;35.98
59274;BME280;45044;41.572;24.730;2022-11-04T09:46:00;91325.28;;;24.21;33.54
59274;BME280;45044;41.572;24.730;2022-11-04T09:48:37;91329.41;;;23.83;34.02
59274;BME280;45044;41.572;24.730;2022-11-04T09:51:06;91328.31;;;24.54;32.91
59274;BME280;45044;41.572;24.730;2022-11-04T09:54:03;91328.00;;;23.38;33.70
59274;BME280;45044;41.572;24.730;2022-11-04T09:56:37;91333.34;;;23.72;33.73
59274;BME280;45044;41.572;24.730;2022-11-04T09:59:04;91318.56;;;23.77;33.96
59274;BME280;45044;41.572;24.730;2022-11-04T10:02:06;91314.44;;;23.08;33.81
59274;BME280;45044;41.572;24.730;2022-11-04T10:12:56;91298.47;;;22.70;34.74
59274;BME280;45044;41.572;24.730;2022-11-04T10:18:56;91296.84;;;23.41;34.32
59274;BME280;45044;41.572;24.730;2022-11-04T10:24:23;91288.34;;;22.65;34.36
59274;BME280;45044;41.572;24.730;2022-11-04T10:27:03;91279.25;;;23.40;34.23
59274;BME280;45044;41.572;24.730;2022-11-04T10:32:24;91270.41;;;23.98;32.79
59274;BME280;45044;41.572;24.730;2022-11-04T10:35:04;91266.84;;;22.93;33.97
59274;BME280;45044;41.572;24.730;2022-11-04T10:37:36;91268.16;;;22.98;33.98
59274;BME280;45044;41.572;24.730;2022-11-04T10:40:26;91271.72;;;23.29;34.52
59274;BME280;45044;41.572;24.730;2022-11-04T10:42:57;91252.53;;;24.49;32.15
59274;BME280;45044;41.572;24.730;2022-11-04T10:45:35;91257.50;;;23.72;33.21
59274;BME280;45044;41.572;24.730;2022-11-04T10:48:11;91256.81;;;23.03;33.42
59274;BME280;45044;41.572;24.730;2022-11-04T10:50:52;91256.34;;;23.05;33.63
59274;BME280;45044;41.572;24.730;2022-11-04T10:53:23;91245.03;;;23.35;32.91
59274;BME280;45044;41.572;24.730;2022-11-04T10:58:26;91252.06;;;22.98;33.29
59274;BME280;45044;41.572;24.730;2022-11-04T11:00:53;91229.34;;;22.41;34.60
59274;BME280;45044;41.572;24.730;2022-11-04T11:03:32;91226.09;;;23.38;32.70
59274;BME280;45044;41.572;24.730;2022-11-04T11:08:59;91213.94;;;22.69;33.88
59274;BME280;45044;41.572;24.730;2022-11-04T11:11:44;91232.44;;;23.26;33.19
59274;BME280;45044;41.572;24.730;2022-11-04T11:16:55;91212.97;;;23.16;34.50
59274;BME280;45044;41.572;24.730;2022-11-04T11:19:23;91224.16;;;23.14;33.12
59274;BME280;45044;41.572;24.730;2022-11-04T11:21:54;91231.91;;;23.86;32.95
59274;BME280;45044;41.572;24.730;2022-11-04T11:24:24;91217.31;;;22.79;33.03
59274;BME280;45044;41.572;24.730;2022-11-04T11:26:53;91193.97;;;23.93;31.40
59274;BME280;45044;41.572;24.730;2022-11-04T11:29:28;91207.25;;;23.72;31.72
59274;BME280;45044;41.572;24.730;2022-11-04T11:31:57;91201.59;;;23.70;32.17
59274;BME280;45044;41.572;24.730;2022-11-04T11:34:36;91200.31;;;25.22;31.39
59274;BME280;45044;41.572;24.730;2022-11-04T11:37:18;91199.31;;;25.82;30.25
59274;BME280;45044;41.572;24.730;2022-11-04T11:39:47;91201.84;;;24.57;31.64
59274;BME280;45044;41.572;24.730;2022-11-04T11:42:15;91207.94;;;23.57;32.14
59274;BME280;45044;41.572;24.730;2022-11-04T11:44:49;91191.06;;;22.93;33.40
59274;BME280;45044;41.572;24.730;2022-11-04T11:52:39;91187.91;;;22.70;33.45
59274;BME280;45044;41.572;24.730;2022-11-04T12:01:23;91186.91;;;23.80;32.61
59274;BME280;45044;41.572;24.730;2022-11-04T12:03:52;91189.13;;;23.82;32.77
59274;BME280;45044;41.572;24.730;2022-11-04T12:09:45;91187.09;;;22.88;34.19
59274;BME280;45044;41.572;24.730;2022-11-04T12:17:43;91187.66;;;23.17;34.03
59274;BME280;45044;41.572;24.730;2022-11-04T12:25:53;91184.53;;;21.23;37.04
59274;BME280;45044;41.572;24.730;2022-11-04T12:31:13;91166.06;;;20.46;37.86
59274;BME280;45044;41.572;24.730;2022-11-04T12:41:42;91158.84;;;21.53;35.98
59274;BME280;45044;41.572;24.730;2022-11-04T12:50:56;91159.69;;;19.89;38.78
59274;BME280;45044;41.572;24.730;2022-11-04T12:53:12;91160.22;;;20.29;38.36
59274;BME280;45044;41.572;24.730;2022-11-04T12:55:43;91150.38;;;20.16;38.90
59274;BME280;45044;41.572;24.730;2022-11-04T13:00:47;91155.19;;;19.77;39.12
59274;BME280;45044;41.572;24.730;2022-11-04T13:03:26;91156.09;;;19.38;39.90
59274;BME280;45044;41.572;24.730;2022-11-04T13:06:03;91163.78;;;19.36;39.35
59274;BME280;45044;41.572;24.730;2022-11-04T13:08:50;91174.00;;;19.15;40.05
59274;BME280;45044;41.572;24.730;2022-11-04T13:11:27;91163.97;;;19.19;40.41
59274;BME280;45044;41.572;24.730;2022-11-04T13:14:01;91158.88;;;18.99;40.30
59274;BME280;45044;41.572;24.730;2022-11-04T13:16:32;91157.84;;;19.32;40.22
59274;BME280;45044;41.572;24.730;2022-11-04T13:19:00;91160.06;;;19.56;39.13
59274;BME280;45044;41.572;24.730;2022-11-04T13:21:31;91156.72;;;19.87;39.00
59274;BME280;45044;41.572;24.730;2022-11-04T13:24:12;91153.22;;;19.99;38.55
59274;BME280;45044;41.572;24.730;2022-11-04T13:26:40;91161.97;;;20.22;39.32
59274;BME280;45044;41.572;24.730;2022-11-04T13:29:13;91161.44;;;20.05;39.09
59274;BME280;45044;41.572;24.730;2022-11-04T13:34:53;91166.28;;;19.75;40.21
59274;BME280;45044;41.572;24.730;2022-11-04T13:37:34;91163.38;;;19.60;41.58
59274;BME280;45044;41.572;24.730;2022-11-04T13:40:14;91164.06;;;19.51;41.70
59274;BME280;45044;41.572;24.730;2022-11-04T13:45:19;91175.50;;;19.38;41.16
59274;BME280;45044;41.572;24.730;2022-11-04T13:47:49;91160.88;;;19.08;41.96
59274;BME280;45044;41.572;24.730;2022-11-04T13:52:54;91165.75;;;18.48;43.19
59274;BME280;45044;41.572;24.730;2022-11-04T13:55:21;91158.66;;;18.31;43.91
59274;BME280;45044;41.572;24.730;2022-11-04T13:57:52;91163.00;;;18.25;44.01
59274;BME280;45044;41.572;24.730;2022-11-04T14:00:31;91168.25;;;17.86;45.38
59274;BME280;45044;41.572;24.730;2022-11-04T14:06:01;91166.31;;;17.44;46.59
59274;BME280;45044;41.572;24.730;2022-11-04T14:08:29;91175.31;;;17.33;47.10
59274;BME280;45044;41.572;24.730;2022-11-04T14:10:59;91141.44;;;16.74;48.63
59274;BME280;45044;41.572;24.730;2022-11-04T14:16:38;91161.81;;;16.94;49.51
59274;BME280;45044;41.572;24.730;2022-11-04T14:22:14;91162.69;;;16.74;50.73
59274;BME280;45044;41.572;24.730;2022-11-04T14:24:42;91167.97;;;16.58;51.59
59274;BME280;45044;41.572;24.730;2022-11-04T14:27:37;91164.44;;;16.64;52.48
59274;BME280;45044;41.572;24.730;2022-11-04T14:30:11;91156.47;;;16.48;53.38
59274;BME280;45044;41.572;24.730;2022-11-04T14:32:59;91159.03;;;16.35;54.51
59274;BME280;45044;41.572;24.730;2022-11-04T14:35:28;91158.06;;;16.08;56.17
59274;BME280;45044;41.572;24.730;2022-11-04T14:37:58;91145.25;;;15.86;56.92
59274;BME280;45044;41.572;24.730;2022-11-04T14:40:45;91151.41;;;16.00;57.33
59274;BME280;45044;41.572;24.730;2022-11-04T14:43:22;91155.50;;;15.84;57.92
59274;BME280;45044;41.572;24.730;2022-11-04T14:45:53;91158.72;;;15.75;59.51
59274;BME280;45044;41.572;24.730;2022-11-04T14:48:21;91160.41;;;15.65;59.74
59274;BME280;45044;41.572;24.730;2022-11-04T14:50:53;91150.91;;;15.48;60.48
59274;BME280;45044;41.572;24.730;2022-11-04T14:53:35;91160.81;;;15.43;61.32
59274;BME280;45044;41.572;24.730;2022-11-04T14:56:15;91160.88;;;15.40;61.29
59274;BME280;45044;41.572;24.730;2022-11-04T14:58:58;91157.28;;;15.30;62.47
59274;BME280;45044;41.572;24.730;2022-11-04T15:01:28;91149.88;;;15.21;62.64
59274;BME280;45044;41.572;24.730;2022-11-04T15:04:05;91155.25;;;15.17;62.52
59274;BME280;45044;41.572;24.730;2022-11-04T15:06:39;91146.31;;;15.07;63.04
59274;BME280;45044;41.572;24.730;2022-11-04T15:09:26;91159.69;;;15.00;63.85
59274;BME280;45044;41.572;24.730;2022-11-04T15:12:13;91129.59;;;14.66;65.10
59274;BME280;45044;41.572;24.730;2022-11-04T15:14:58;91160.97;;;14.92;65.36
59274;BME280;45044;41.572;24.730;2022-11-04T15:17:31;91167.09;;;14.85;65.51
59274;BME280;45044;41.572;24.730;2022-11-04T15:20:00;91158.44;;;14.84;65.99
59274;BME280;45044;41.572;24.730;2022-11-04T15:22:28;91155.53;;;14.75;66.67
59274;BME280;45044;41.572;24.730;2022-11-04T15:25:02;91152.13;;;14.75;67.27
59274;BME280;45044;41.572;24.730;2022-11-04T15:27:31;91158.91;;;14.52;68.74